sensor_id;sensor_type;location;lat;lon;timestamp;temperature;humidity
20162;DHT22;51382;53.180;15.414;2022-08-03T00:11:28;16.90;99.90
20162;DHT22;51382;53.180;15.414;2022-08-03T00:26:39;16.70;99.90
20162;DHT22;51382;53.180;15.414;2022-08-03T00:41:50;16.50;99.90
20162;DHT22;51382;53.180;15.414;2022-08-03T00:57:01;16.30;99.90
20162;DHT22;51382;53.180;15.414;2022-08-03T01:12:16;16.50;99.90
20162;DHT22;51382;53.180;15.414;2022-08-03T01:27:38;16.60;99.90
20162;DHT22;51382;53.180;15.414;2022-08-03T01:43:01;16.70;99.90
20162;DHT22;51382;53.180;15.414;2022-08-03T01:58:14;16.80;99.90
20162;DHT22;51382;53.180;15.414;2022-08-03T02:13:27;16.90;99.90
20162;DHT22;51382;53.180;15.414;2022-08-03T02:28:39;16.70;99.90
20162;DHT22;51382;53.180;15.414;2022-08-03T02:43:53;16.80;99.90
20162;DHT22;51382;53.180;15.414;2022-08-03T02:59:06;16.50;99.90
20162;DHT22;51382;53.180;15.414;2022-08-03T03:14:18;16.50;99.90
20162;DHT22;51382;53.180;15.414;2022-08-03T03:29:30;16.40;99.90
20162;DHT22;51382;53.180;15.414;2022-08-03T03:44:42;16.40;99.90
20162;DHT22;51382;53.180;15.414;2022-08-03T03:59:53;16.50;99.90
20162;DHT22;51382;53.180;15.414;2022-08-03T04:14:59;16.60;99.90
20162;DHT22;51382;53.180;15.414;2022-08-03T04:30:12;17.20;99.90
20162;DHT22;51382;53.180;15.414;2022-08-03T04:45:24;17.30;99.90
20162;DHT22;51382;53.180;15.414;2022-08-03T05:00:38;17.00;99.90
20162;DHT22;51382;53.180;15.414;2022-08-03T05:15:49;23.00;99.90
20162;DHT22;51382;53.180;15.414;2022-08-03T05:31:00;23.40;99.90
20162;DHT22;51382;53.180;15.414;2022-08-03T05:46:11;21.80;99.90
20162;DHT22;51382;53.180;15.414;2022-08-03T06:01:23;25.30;99.90
20162;DHT22;51382;53.180;15.414;2022-08-03T06:16:29;26.90;99.90
20162;DHT22;51382;53.180;15.414;2022-08-03T06:31:40;32.40;99.90
20162;DHT22;51382;53.180;15.414;2022-08-03T06:46:51;25.50;99.90
20162;DHT22;51382;53.180;15.414;2022-08-03T07:02:02;32.50;99.90
20162;DHT22;51382;53.180;15.414;2022-08-03T07:17:13;29.20;99.90
20162;DHT22;51382;53.180;15.414;2022-08-03T07:32:24;37.10;99.90
20162;DHT22;51382;53.180;15.414;2022-08-03T07:47:33;29.40;99.90
20162;DHT22;51382;53.180;15.414;2022-08-03T08:02:44;28.00;99.90
20162;DHT22;51382;53.180;15.414;2022-08-03T08:17:55;28.40;99.90
20162;DHT22;51382;53.180;15.414;2022-08-03T08:33:08;28.50;99.90
20162;DHT22;51382;53.180;15.414;2022-08-03T08:48:20;29.20;99.90
20162;DHT22;51382;53.180;15.414;2022-08-03T09:03:33;29.50;99.90
20162;DHT22;51382;53.180;15.414;2022-08-03T09:18:47;29.50;99.90
20162;DHT22;51382;53.180;15.414;2022-08-03T09:33:59;29.50;99.90
20162;DHT22;51382;53.180;15.414;2022-08-03T09:49:11;30.80;99.90
20162;DHT22;51382;53.180;15.414;2022-08-03T10:04:22;30.80;99.90
20162;DHT22;51382;53.180;15.414;2022-08-03T10:19:34;30.60;99.90
20162;DHT22;51382;53.180;15.414;2022-08-03T10:34:46;30.60;99.90
20162;DHT22;51382;53.180;15.414;2022-08-03T10:50:00;30.50;99.90
20162;DHT22;51382;53.180;15.414;2022-08-03T11:05:25;31.00;99.90
20162;DHT22;51382;53.180;15.414;2022-08-03T11:20:44;30.30;99.90
20162;DHT22;51382;53.180;15.414;2022-08-03T11:36:00;31.40;99.90
20162;DHT22;51382;53.180;15.414;2022-08-03T11:51:19;31.00;99.90
20162;DHT22;51382;53.180;15.414;2022-08-03T12:06:31;31.10;99.90
20162;DHT22;51382;53.180;15.414;2022-08-03T12:22:03;31.10;99.90
20162;DHT22;51382;53.180;15.414;2022-08-03T12:37:18;31.30;99.90
20162;DHT22;51382;53.180;15.414;2022-08-03T12:52:30;31.00;99.90
20162;DHT22;51382;53.180;15.414;2022-08-03T13:07:52;30.80;99.90
20162;DHT22;51382;53.180;15.414;2022-08-03T13:23:05;31.20;99.90
20162;DHT22;51382;53.180;15.414;2022-08-03T13:38:16;30.80;99.90
20162;DHT22;51382;53.180;15.414;2022-08-03T13:53:27;30.80;99.90
20162;DHT22;51382;53.180;15.414;2022-08-03T14:08:38;31.20;99.90
20162;DHT22;51382;53.180;15.414;2022-08-03T14:23:46;31.00;99.90
20162;DHT22;51382;53.180;15.414;2022-08-03T14:38:56;30.80;99.90
20162;DHT22;51382;53.180;15.414;2022-08-03T14:54:07;30.90;99.90
20162;DHT22;51382;53.180;15.414;2022-08-03T15:09:13;31.30;99.90
20162;DHT22;51382;53.180;15.414;2022-08-03T15:24:24;31.40;99.90
20162;DHT22;51382;53.180;15.414;2022-08-03T15:39:35;31.20;99.90
20162;DHT22;51382;53.180;15.414;2022-08-03T15:54:46;31.30;99.90
20162;DHT22;51382;53.180;15.414;2022-08-03T16:09:57;31.30;99.90
20162;DHT22;51382;53.180;15.414;2022-08-03T16:25:08;31.20;99.90
20162;DHT22;51382;53.180;15.414;2022-08-03T16:40:20;31.10;99.90
20162;DHT22;51382;53.180;15.414;2022-08-03T16:55:31;30.40;99.90
20162;DHT22;51382;53.180;15.414;2022-08-03T17:10:43;29.60;99.90
20162;DHT22;51382;53.180;15.414;2022-08-03T17:25:54;29.60;99.90
20162;DHT22;51382;53.180;15.414;2022-08-03T17:41:09;29.00;99.90
20162;DHT22;51382;53.180;15.414;2022-08-03T17:56:23;28.10;99.90
20162;DHT22;51382;53.180;15.414;2022-08-03T18:11:33;27.40;99.90
20162;DHT22;51382;53.180;15.414;2022-08-03T18:26:46;26.60;99.90
20162;DHT22;51382;53.180;15.414;2022-08-03T18:41:58;26.00;99.90
20162;DHT22;51382;53.180;15.414;2022-08-03T18:57:11;24.50;99.90
20162;DHT22;51382;53.180;15.414;2022-08-03T19:12:30;24.50;99.90
20162;DHT22;51382;53.180;15.414;2022-08-03T19:27:46;24.30;99.90
20162;DHT22;51382;53.180;15.414;2022-08-03T19:42:59;23.90;99.90
20162;DHT22;51382;53.180;15.414;2022-08-03T19:58:13;23.50;99.90
20162;DHT22;51382;53.180;15.414;2022-08-03T20:13:26;23.20;99.90
20162;DHT22;51382;53.180;15.414;2022-08-03T20:28:40;23.10;99.90
20162;DHT22;51382;53.180;15.414;2022-08-03T20:43:54;22.80;99.90
20162;DHT22;51382;53.180;15.414;2022-08-03T20:59:07;22.70;99.90
20162;DHT22;51382;53.180;15.414;2022-08-03T21:14:20;22.20;99.90
20162;DHT22;51382;53.180;15.414;2022-08-03T21:29:36;22.00;99.90
20162;DHT22;51382;53.180;15.414;2022-08-03T21:44:47;21.70;99.90
20162;DHT22;51382;53.180;15.414;2022-08-03T22:00:00;21.70;99.90
20162;DHT22;51382;53.180;15.414;2022-08-03T22:15:18;21.10;99.90
20162;DHT22;51382;53.180;15.414;2022-08-03T22:30:29;21.10;99.90
20162;DHT22;51382;53.180;15.414;2022-08-03T22:45:41;21.00;99.90
20162;DHT22;51382;53.180;15.414;2022-08-03T23:00:56;20.90;99.90
20162;DHT22;51382;53.180;15.414;2022-08-03T23:16:11;20.90;99.90
20162;DHT22;51382;53.180;15.414;2022-08-03T23:31:24;20.90;99.90
20162;DHT22;51382;53.180;15.414;2022-08-03T23:46:38;21.00;99.90
